createdAt,value
2023-04-04T00:00:25.746Z,2.20
2023-04-04T00:02:52.200Z,2.21
2023-04-04T00:05:18.651Z,2.23
2023-04-04T00:07:45.082Z,2.17
2023-04-04T00:10:11.488Z,2.26
2023-04-04T00:12:37.929Z,2.46
2023-04-04T00:15:04.371Z,2.38
2023-04-04T00:17:30.934Z,2.44
2023-04-04T00:19:58.135Z,2.20
2023-04-04T00:22:24.569Z,2.34
2023-04-04T00:24:51.735Z,2.05
2023-04-04T00:27:18.248Z,2.18
2023-04-04T00:29:44.696Z,2.19
2023-04-04T00:32:11.421Z,2.09
2023-04-04T00:34:37.855Z,2.12
2023-04-04T00:37:07.584Z,2.34
2023-04-04T00:39:34.137Z,2.29
2023-04-04T00:42:00.867Z,2.49
2023-04-04T00:44:27.283Z,2.23
2023-04-04T00:46:53.708Z,2.27
2023-04-04T00:49:20.112Z,2.23
2023-04-04T00:51:46.564Z,2.12
2023-04-04T00:54:13.004Z,2.24
2023-04-04T00:56:39.865Z,2.17
2023-04-04T00:59:06.318Z,2.16
2023-04-04T01:01:33.331Z,2.07
2023-04-04T01:03:59.856Z,1.96
2023-04-04T01:06:28.140Z,2.11
2023-04-04T01:08:54.556Z,1.96
2023-04-04T01:11:21.490Z,2.07
2023-04-04T01:13:47.942Z,1.97
2023-04-04T01:16:14.432Z,2.01
2023-04-04T01:18:40.956Z,1.98
2023-04-04T01:21:07.449Z,2.10
2023-04-04T01:23:33.917Z,2.16
2023-04-04T01:26:00.348Z,2.10
2023-04-04T01:28:27.584Z,2.25
2023-04-04T01:30:54.062Z,2.34
2023-04-04T01:33:20.848Z,2.03
2023-04-04T01:35:47.554Z,1.86
2023-04-04T01:38:14.089Z,1.96
2023-04-04T01:40:42.116Z,2.02
2023-04-04T01:43:08.789Z,2.16
2023-04-04T01:45:35.584Z,2.10
2023-04-04T01:48:02.344Z,2.06
2023-04-04T01:50:28.793Z,2.01
2023-04-04T01:52:55.210Z,1.96
2023-04-04T01:55:22.066Z,2.03
2023-04-04T01:57:48.576Z,1.63
2023-04-04T02:00:16.127Z,1.78
2023-04-04T02:02:42.620Z,2.07
2023-04-04T02:05:09.331Z,1.93
2023-04-04T02:07:35.729Z,1.75
2023-04-04T02:10:02.168Z,1.79
2023-04-04T02:12:28.652Z,1.75
2023-04-04T02:14:55.067Z,1.75
2023-04-04T02:17:21.576Z,1.78
2023-04-04T02:19:48.019Z,1.81
2023-04-04T02:22:14.514Z,1.74
2023-04-04T02:24:40.989Z,1.57
2023-04-04T02:27:07.488Z,1.76
2023-04-04T02:29:33.912Z,1.61
2023-04-04T02:32:00.341Z,1.51
2023-04-04T02:34:26.795Z,1.63
2023-04-04T02:36:53.506Z,1.69
2023-04-04T02:39:20.159Z,1.96
2023-04-04T02:41:47.368Z,1.71
2023-04-04T02:44:13.825Z,1.90
2023-04-04T02:46:40.503Z,1.59
2023-04-04T02:49:07.007Z,1.64
2023-04-04T02:51:33.777Z,1.64
2023-04-04T02:54:00.298Z,1.54
2023-04-04T02:56:26.870Z,1.50
2023-04-04T02:58:53.386Z,1.32
2023-04-04T03:01:19.868Z,1.22
2023-04-04T03:03:46.734Z,1.08
2023-04-04T03:06:15.146Z,1.32
2023-04-04T03:08:41.595Z,1.06
2023-04-04T03:11:08.032Z,1.15
2023-04-04T03:13:34.485Z,0.97
2023-04-04T03:16:02.860Z,0.91
2023-04-04T03:18:29.340Z,0.87
2023-04-04T03:20:55.768Z,0.88
2023-04-04T03:23:22.217Z,0.86
2023-04-04T03:25:48.629Z,1.01
2023-04-04T03:28:15.126Z,0.92
2023-04-04T03:30:41.752Z,0.97
2023-04-04T03:33:08.783Z,0.89
2023-04-04T03:35:35.275Z,0.92
2023-04-04T03:38:02.212Z,1.06
2023-04-04T03:40:28.629Z,0.85
2023-04-04T03:42:55.057Z,0.87
2023-04-04T03:45:22.047Z,0.90
2023-04-04T03:47:48.526Z,0.87
2023-04-04T03:50:14.984Z,0.91
2023-04-04T03:52:41.447Z,0.90
2023-04-04T03:55:07.917Z,0.82
2023-04-04T03:57:34.332Z,0.90
2023-04-04T04:00:00.761Z,1.06
2023-04-04T04:02:27.584Z,1.09
2023-04-04T04:04:54.034Z,0.97
2023-04-04T04:07:20.597Z,0.81
2023-04-04T04:09:47.001Z,0.88
2023-04-04T04:12:13.408Z,0.86
2023-04-04T04:14:39.851Z,0.91
2023-04-04T04:17:06.265Z,0.93
2023-04-04T04:19:32.672Z,0.97
2023-04-04T04:21:59.091Z,1.27
2023-04-04T04:24:25.524Z,0.94
2023-04-04T04:26:51.929Z,0.87
2023-04-04T04:29:18.395Z,0.85
2023-04-04T04:31:44.870Z,0.97
2023-04-04T04:34:11.292Z,0.83
2023-04-04T04:36:37.774Z,1.01
2023-04-04T04:39:04.184Z,0.95
2023-04-04T04:41:30.649Z,0.79
2023-04-04T04:43:57.122Z,0.90
2023-04-04T04:46:23.570Z,0.89
2023-04-04T04:48:50.090Z,0.87
2023-04-04T04:51:16.555Z,1.16
2023-04-04T04:53:42.994Z,0.95
2023-04-04T04:56:09.462Z,0.86
2023-04-04T04:58:35.935Z,1.11
2023-04-04T05:01:03.173Z,1.11
2023-04-04T05:03:29.756Z,1.28
2023-04-04T05:05:56.346Z,1.27
2023-04-04T05:08:22.884Z,1.34
2023-04-04T05:10:49.450Z,1.10
2023-04-04T05:13:15.863Z,1.05
2023-04-04T05:15:42.269Z,1.06
2023-04-04T05:18:08.681Z,1.23
2023-04-04T05:20:35.585Z,1.41
2023-04-04T05:23:02.899Z,1.25
2023-04-04T05:25:29.368Z,1.19
2023-04-04T05:27:56.534Z,1.20
2023-04-04T05:30:23.713Z,1.19
2023-04-04T05:32:50.218Z,1.40
2023-04-04T05:35:16.834Z,1.44
2023-04-04T05:37:43.773Z,1.13
2023-04-04T05:40:10.270Z,1.48
2023-04-04T05:42:36.760Z,1.87
2023-04-04T05:45:03.864Z,1.76
2023-04-04T05:47:30.314Z,1.89
2023-04-04T05:49:57.190Z,1.82
2023-04-04T05:52:23.621Z,2.14
2023-04-04T05:54:50.059Z,1.84
2023-04-04T05:57:16.522Z,1.86
2023-04-04T05:59:43.015Z,2.39
2023-04-04T06:02:09.571Z,2.02
2023-04-04T06:04:36.076Z,2.65
2023-04-04T06:07:02.604Z,2.55
2023-04-04T06:09:29.073Z,2.70
2023-04-04T06:11:55.732Z,3.03
2023-04-04T06:14:22.196Z,3.02
2023-04-04T06:16:48.779Z,2.77
2023-04-04T06:19:15.405Z,2.59
2023-04-04T06:21:41.880Z,2.90
2023-04-04T06:24:08.365Z,2.92
2023-04-04T06:26:34.766Z,2.69
2023-04-04T06:29:01.209Z,2.71
2023-04-04T06:31:27.673Z,2.73
2023-04-04T06:33:54.108Z,3.12
2023-04-04T06:36:21.438Z,3.25
2023-04-04T06:38:48.026Z,3.42
2023-04-04T06:41:14.487Z,2.73
2023-04-04T06:43:41.111Z,2.93
2023-04-04T06:46:07.564Z,2.83
2023-04-04T06:48:33.982Z,2.82
2023-04-04T06:51:00.404Z,3.00
2023-04-04T06:53:26.866Z,2.97
2023-04-04T06:55:53.783Z,2.81
2023-04-04T06:58:20.218Z,3.07
2023-04-04T07:00:47.040Z,2.89
2023-04-04T07:03:13.603Z,3.18
2023-04-04T07:05:40.234Z,3.10
2023-04-04T07:08:06.954Z,3.10
2023-04-04T07:10:33.401Z,3.39
2023-04-04T07:13:00.111Z,3.18
2023-04-04T07:15:26.614Z,3.72
2023-04-04T07:17:53.199Z,3.81
2023-04-04T07:20:19.620Z,4.51
2023-04-04T07:22:46.488Z,5.07
2023-04-04T07:25:13.681Z,4.53
2023-04-04T07:27:41.132Z,4.77
2023-04-04T07:30:07.971Z,4.27
2023-04-04T07:32:34.475Z,5.67
2023-04-04T07:35:00.934Z,5.67
2023-04-04T07:37:27.421Z,5.18
2023-04-04T07:39:53.919Z,5.62
2023-04-04T07:42:23.441Z,6.25
2023-04-04T07:44:49.901Z,5.94
2023-04-04T07:47:17.086Z,5.90
2023-04-04T07:49:43.525Z,5.98
2023-04-04T07:52:10.091Z,5.57
2023-04-04T07:54:36.491Z,4.60
2023-04-04T07:57:06.199Z,4.84
2023-04-04T07:59:32.611Z,5.84
2023-04-04T08:01:59.065Z,5.52
2023-04-04T08:04:25.532Z,5.19
2023-04-04T08:06:51.995Z,5.57
2023-04-04T08:09:18.441Z,5.26
2023-04-04T08:11:45.349Z,5.31
2023-04-04T08:14:12.289Z,5.04
2023-04-04T08:16:39.255Z,4.99
2023-04-04T08:19:05.761Z,5.21
2023-04-04T08:21:32.290Z,5.23
2023-04-04T08:23:58.822Z,5.49
2023-04-04T08:26:25.245Z,5.02
2023-04-04T08:28:51.671Z,4.07
2023-04-04T08:31:19.146Z,3.51
2023-04-04T08:33:47.755Z,4.22
2023-04-04T08:36:14.446Z,5.32
2023-04-04T08:38:40.881Z,6.23
2023-04-04T08:41:07.356Z,4.87
2023-04-04T08:43:34.020Z,5.11
2023-04-04T08:46:00.455Z,5.94
2023-04-04T08:48:27.124Z,5.60
2023-04-04T08:50:57.401Z,5.33
2023-04-04T08:53:23.825Z,5.53
2023-04-04T08:55:50.310Z,5.76
2023-04-04T08:58:17.829Z,5.91
2023-04-04T09:00:44.376Z,6.00
2023-04-04T09:03:10.989Z,6.03
2023-04-04T09:05:37.506Z,5.93
2023-04-04T09:08:04.103Z,6.52
2023-04-04T09:10:30.599Z,6.37
2023-04-04T09:13:05.132Z,6.97
2023-04-04T09:15:41.508Z,6.07
2023-04-04T09:18:08.200Z,6.79
2023-04-04T09:20:34.989Z,6.92
2023-04-04T09:23:01.717Z,6.76
2023-04-04T09:25:28.116Z,7.12
2023-04-04T09:27:54.638Z,6.33
2023-04-04T09:30:21.092Z,6.40
2023-04-04T09:32:47.582Z,6.05
2023-04-04T09:35:16.247Z,5.38
2023-04-04T09:37:42.812Z,6.70
2023-04-04T09:40:09.579Z,6.72
2023-04-04T09:42:36.204Z,6.07
2023-04-04T09:45:02.689Z,7.62
2023-04-04T09:47:31.878Z,7.14
2023-04-04T09:49:58.731Z,6.92
2023-04-04T09:52:25.323Z,6.17
2023-04-04T09:57:21.607Z,7.02
2023-04-04T09:59:48.068Z,5.72
2023-04-04T10:02:14.512Z,5.56
2023-04-04T10:04:40.960Z,5.81
2023-04-04T10:07:07.945Z,5.79
2023-04-04T10:09:34.377Z,7.22
2023-04-04T10:12:00.806Z,7.54
2023-04-04T10:14:27.271Z,7.98
2023-04-04T10:16:53.704Z,7.59
2023-04-04T10:19:20.169Z,8.51
2023-04-04T10:21:47.007Z,9.03
2023-04-04T10:24:14.362Z,7.56
2023-04-04T10:26:40.868Z,7.41
2023-04-04T10:29:07.308Z,7.19
2023-04-04T10:31:34.324Z,7.48
2023-04-04T10:34:00.877Z,5.79
2023-04-04T10:36:27.416Z,5.26
2023-04-04T10:38:54.136Z,5.79
2023-04-04T10:41:20.619Z,5.44
2023-04-04T10:43:47.065Z,5.45
2023-04-04T10:46:13.729Z,6.58
2023-04-04T10:48:40.201Z,7.09
2023-04-04T10:51:06.834Z,7.66
2023-04-04T10:53:33.246Z,6.35
2023-04-04T10:55:59.661Z,6.95
2023-04-04T10:58:26.355Z,6.58
2023-04-04T11:00:52.932Z,6.02
2023-04-04T11:03:19.451Z,7.13
2023-04-04T11:05:51.521Z,6.66
2023-04-04T11:08:20.135Z,7.81
2023-04-04T11:10:46.640Z,6.65
2023-04-04T11:13:14.511Z,6.32
2023-04-04T11:15:41.392Z,5.72
2023-04-04T11:18:17.897Z,5.82
2023-04-04T11:20:54.030Z,5.00
2023-04-04T11:23:24.550Z,6.11
2023-04-04T11:25:51.011Z,6.55
2023-04-04T11:28:17.733Z,6.79
2023-04-04T11:30:50.474Z,6.14
2023-04-04T11:33:16.946Z,5.38
2023-04-04T11:35:43.762Z,5.04
2023-04-04T11:38:10.232Z,5.67
2023-04-04T11:40:36.693Z,6.36
2023-04-04T11:43:04.457Z,6.90
2023-04-04T11:45:31.883Z,6.24
2023-04-04T11:47:58.474Z,5.93
2023-04-04T11:50:25.721Z,7.01
2023-04-04T11:52:53.868Z,6.63
2023-04-04T11:55:20.665Z,7.26
2023-04-04T11:57:49.506Z,6.78
2023-04-04T12:00:16.560Z,6.56
2023-04-04T12:02:43.800Z,6.65
2023-04-04T12:05:10.441Z,6.80
2023-04-04T12:07:36.951Z,5.75
2023-04-04T12:10:03.396Z,6.76
2023-04-04T12:12:29.916Z,6.88
2023-04-04T12:15:03.440Z,6.84
2023-04-04T12:17:37.551Z,6.27
2023-04-04T12:20:05.235Z,6.40
2023-04-04T12:22:32.358Z,6.01
2023-04-04T12:24:59.166Z,6.00
2023-04-04T12:27:25.866Z,6.02
2023-04-04T12:29:52.333Z,6.74
2023-04-04T12:32:18.771Z,6.56
2023-04-04T12:34:48.662Z,6.80
2023-04-04T12:37:19.201Z,7.40
2023-04-04T12:39:46.236Z,7.42
2023-04-04T12:42:13.393Z,7.03
2023-04-04T12:44:39.829Z,7.46
2023-04-04T12:47:06.433Z,6.87
2023-04-04T12:49:33.126Z,6.03
2023-04-04T12:52:07.438Z,6.69
2023-04-04T12:54:34.213Z,6.60
2023-04-04T12:57:00.680Z,7.22
2023-04-04T12:59:27.558Z,6.09
2023-04-04T13:01:54.029Z,7.19
2023-04-04T13:04:22.329Z,7.23
2023-04-04T13:06:50.408Z,7.33
2023-04-04T13:09:16.973Z,7.16
2023-04-04T13:11:43.765Z,6.57
2023-04-04T13:14:13.089Z,6.24
2023-04-04T13:16:40.998Z,7.02
2023-04-04T13:19:07.500Z,7.05
2023-04-04T13:21:33.913Z,7.38
2023-04-04T13:24:00.500Z,5.76
2023-04-04T13:26:27.934Z,5.74
2023-04-04T13:28:54.400Z,5.85
2023-04-04T13:31:21.943Z,5.25
2023-04-04T13:33:48.513Z,5.99
2023-04-04T13:36:14.955Z,5.97
2023-04-04T13:38:41.651Z,6.32
2023-04-04T13:41:08.111Z,6.49
2023-04-04T13:43:34.585Z,6.61
2023-04-04T13:46:01.216Z,6.19
2023-04-04T13:48:27.871Z,6.67
2023-04-04T13:50:55.623Z,5.80
2023-04-04T13:53:22.232Z,5.99
2023-04-04T13:58:20.375Z,5.81
2023-04-04T14:00:47.298Z,6.33
2023-04-04T14:03:14.215Z,6.24
2023-04-04T14:05:41.022Z,6.91
2023-04-04T14:08:08.342Z,7.16
2023-04-04T14:10:34.792Z,6.95
2023-04-04T14:13:01.866Z,7.12
2023-04-04T14:15:29.175Z,6.92
2023-04-04T14:17:55.681Z,6.87
2023-04-04T14:20:22.216Z,7.04
2023-04-04T14:22:48.665Z,6.71
2023-04-04T14:25:15.090Z,7.13
2023-04-04T14:27:41.493Z,6.97
2023-04-04T14:30:08.291Z,6.70
2023-04-04T14:32:35.130Z,6.06
2023-04-04T14:35:01.695Z,6.43
2023-04-04T14:37:28.179Z,6.37
2023-04-04T14:39:54.648Z,6.41
2023-04-04T14:42:21.823Z,6.50
2023-04-04T14:44:48.265Z,6.26
2023-04-04T14:47:14.740Z,6.81
2023-04-04T14:49:41.343Z,6.88
2023-04-04T14:52:08.044Z,6.88
2023-04-04T14:54:34.480Z,7.48
2023-04-04T14:57:02.334Z,7.43
2023-04-04T14:59:29.091Z,7.13
2023-04-04T15:01:55.868Z,6.78
2023-04-04T15:04:22.344Z,6.66
2023-04-04T15:06:48.831Z,6.61
2023-04-04T15:09:15.265Z,6.64
2023-04-04T15:11:41.688Z,6.46
2023-04-04T15:14:08.370Z,6.33
2023-04-04T15:16:36.121Z,6.48
2023-04-04T15:19:05.932Z,6.53
2023-04-04T15:21:32.456Z,6.63
2023-04-04T15:23:58.945Z,6.89
2023-04-04T15:26:26.157Z,6.79
2023-04-04T15:28:54.956Z,6.45
2023-04-04T15:31:21.471Z,6.43
2023-04-04T15:33:47.991Z,6.63
2023-04-04T15:36:14.435Z,6.39
2023-04-04T15:38:41.094Z,6.46
2023-04-04T15:41:08.359Z,6.44
2023-04-04T15:43:34.815Z,6.47
2023-04-04T15:46:01.711Z,6.44
2023-04-04T15:48:28.208Z,6.75
2023-04-04T15:50:54.665Z,6.75
2023-04-04T15:53:21.668Z,5.99
2023-04-04T15:55:48.103Z,6.06
2023-04-04T15:58:14.770Z,6.08
2023-04-04T16:00:41.553Z,5.84
2023-04-04T16:03:08.343Z,5.90
2023-04-04T16:05:34.913Z,6.18
2023-04-04T16:08:01.438Z,6.44
2023-04-04T16:10:27.884Z,6.34
2023-04-04T16:12:54.297Z,5.88
2023-04-04T16:15:20.997Z,6.19
2023-04-04T16:17:47.475Z,6.04
2023-04-04T16:20:13.946Z,6.32
2023-04-04T16:22:40.621Z,6.00
2023-04-04T16:25:11.901Z,6.22
2023-04-04T16:27:38.328Z,6.18
2023-04-04T16:30:04.826Z,6.28
2023-04-04T16:32:31.912Z,6.12
2023-04-04T16:34:58.403Z,6.19
2023-04-04T16:37:24.864Z,5.84
2023-04-04T16:39:52.222Z,5.51
2023-04-04T16:42:19.713Z,5.39
2023-04-04T16:44:46.196Z,5.53
2023-04-04T16:47:12.666Z,5.49
2023-04-04T16:49:39.111Z,5.38
2023-04-04T16:52:05.981Z,5.56
2023-04-04T16:54:35.945Z,5.55
2023-04-04T16:57:02.393Z,5.81
2023-04-04T16:59:28.915Z,5.81
2023-04-04T17:01:55.443Z,5.83
2023-04-04T17:04:21.929Z,5.83
2023-04-04T17:06:48.824Z,5.79
2023-04-04T17:09:15.293Z,5.70
2023-04-04T17:11:44.937Z,5.71
2023-04-04T17:14:11.391Z,5.88
2023-04-04T17:16:37.855Z,5.81
2023-04-04T17:19:04.335Z,5.70
2023-04-04T17:21:30.779Z,5.62
2023-04-04T17:23:57.327Z,5.88
2023-04-04T17:26:23.780Z,5.67
2023-04-04T17:28:50.254Z,5.93
2023-04-04T17:31:16.706Z,5.81
2023-04-04T17:33:43.130Z,5.97
2023-04-04T17:36:09.539Z,5.85
2023-04-04T17:38:36.618Z,6.00
2023-04-04T17:41:04.445Z,6.03
2023-04-04T17:43:31.440Z,6.10
2023-04-04T17:45:57.980Z,5.43
2023-04-04T17:48:24.467Z,5.65
2023-04-04T17:50:51.742Z,5.65
2023-04-04T17:53:18.268Z,5.78
2023-04-04T17:55:44.771Z,5.92
2023-04-04T17:58:11.193Z,5.83
2023-04-04T18:00:37.706Z,5.65
2023-04-04T18:03:04.437Z,5.76
2023-04-04T18:05:31.413Z,5.51
2023-04-04T18:07:58.386Z,5.60
2023-04-04T18:10:27.885Z,5.49
2023-04-04T18:12:54.364Z,5.53
2023-04-04T18:15:20.935Z,5.20
2023-04-04T18:17:47.574Z,5.55
2023-04-04T18:20:21.190Z,5.31
2023-04-04T18:22:54.993Z,5.31
2023-04-04T18:25:21.536Z,5.22
2023-04-04T18:27:48.004Z,5.38
2023-04-04T18:30:14.424Z,5.48
2023-04-04T18:32:41.079Z,5.27
2023-04-04T18:35:07.684Z,5.28
2023-04-04T18:37:34.124Z,5.11
2023-04-04T18:40:00.913Z,5.01
2023-04-04T18:42:27.529Z,5.16
2023-04-04T18:44:54.063Z,5.25
2023-04-04T18:47:21.570Z,5.27
2023-04-04T18:49:48.018Z,5.13
2023-04-04T18:52:14.435Z,5.13
2023-04-04T18:54:40.956Z,5.02
2023-04-04T18:57:07.381Z,5.04
2023-04-04T18:59:34.116Z,5.20
2023-04-04T19:02:01.098Z,5.15
2023-04-04T19:04:27.586Z,5.12
2023-04-04T19:06:54.046Z,5.14
2023-04-04T19:09:26.420Z,5.08
2023-04-04T19:11:52.872Z,5.14
2023-04-04T19:14:19.734Z,5.23
2023-04-04T19:16:47.378Z,5.13
2023-04-04T19:19:13.844Z,5.00
2023-04-04T19:21:40.264Z,5.13
2023-04-04T19:24:06.820Z,5.19
2023-04-04T19:26:33.349Z,5.21
2023-04-04T19:28:59.884Z,5.23
2023-04-04T19:31:30.095Z,5.21
2023-04-04T19:33:56.930Z,5.09
2023-04-04T19:36:23.349Z,5.19
2023-04-04T19:38:49.802Z,4.98
2023-04-04T19:41:16.864Z,4.91
2023-04-04T19:43:43.374Z,4.69
2023-04-04T19:46:09.982Z,4.67
2023-04-04T19:48:36.489Z,4.65
2023-04-04T19:51:02.909Z,4.87
2023-04-04T19:53:29.473Z,4.76
2023-04-04T19:55:56.183Z,4.63
2023-04-04T19:58:22.602Z,4.74
2023-04-04T20:00:49.149Z,4.74
2023-04-04T20:03:15.626Z,4.64
2023-04-04T20:05:42.150Z,4.57
2023-04-04T20:08:08.576Z,4.57
2023-04-04T20:10:35.035Z,4.56
2023-04-04T20:13:01.482Z,4.42
2023-04-04T20:15:27.926Z,4.20
2023-04-04T20:17:54.399Z,4.25
2023-04-04T20:20:21.041Z,4.09
2023-04-04T20:22:47.618Z,4.12
2023-04-04T20:25:14.057Z,3.53
2023-04-04T20:27:40.496Z,3.77
2023-04-04T20:30:06.917Z,3.62
2023-04-04T20:32:33.359Z,3.74
2023-04-04T20:34:59.791Z,3.76
2023-04-04T20:37:26.699Z,3.74
2023-04-04T20:39:53.262Z,3.65
2023-04-04T20:42:19.806Z,3.51
2023-04-04T20:44:46.261Z,3.59
2023-04-04T20:47:12.687Z,3.82
2023-04-04T20:49:39.101Z,3.77
2023-04-04T20:52:05.656Z,3.66
2023-04-04T20:54:34.216Z,3.73
2023-04-04T20:57:00.659Z,3.69
2023-04-04T20:59:27.224Z,3.75
2023-04-04T21:01:53.738Z,3.75
2023-04-04T21:04:20.190Z,3.70
2023-04-04T21:06:46.629Z,3.66
2023-04-04T21:09:13.035Z,3.64
2023-04-04T21:11:39.709Z,3.64
2023-04-04T21:14:06.388Z,3.67
2023-04-04T21:16:32.970Z,3.57
2023-04-04T21:18:59.487Z,3.59
2023-04-04T21:21:26.450Z,3.66
2023-04-04T21:23:53.214Z,3.70
2023-04-04T21:26:19.694Z,3.68
2023-04-04T21:28:46.127Z,3.67
2023-04-04T21:31:13.887Z,3.53
2023-04-04T21:33:40.594Z,3.48
2023-04-04T21:36:07.930Z,3.47
2023-04-04T21:38:34.413Z,3.57
2023-04-04T21:41:00.919Z,3.47
2023-04-04T21:43:27.449Z,3.56
2023-04-04T21:45:53.885Z,3.62
2023-04-04T21:48:20.331Z,3.71
2023-04-04T21:50:46.759Z,3.42
2023-04-04T21:53:13.186Z,3.53
2023-04-04T21:55:39.618Z,3.52
2023-04-04T21:58:06.255Z,3.60
2023-04-04T22:00:32.682Z,3.52
2023-04-04T22:02:59.090Z,3.57
2023-04-04T22:05:38.045Z,3.61
2023-04-04T22:08:05.248Z,3.55
2023-04-04T22:10:33.306Z,3.56
2023-04-04T22:12:59.793Z,3.62
2023-04-04T22:15:29.649Z,3.63
2023-04-04T22:18:03.771Z,3.56
2023-04-04T22:20:30.337Z,3.39
2023-04-04T22:22:58.014Z,3.42
2023-04-04T22:25:24.505Z,3.53
2023-04-04T22:27:51.346Z,3.57
2023-04-04T22:30:17.872Z,3.63
2023-04-04T22:32:44.727Z,3.64
2023-04-04T22:35:12.507Z,3.73
2023-04-04T22:37:41.414Z,3.57
2023-04-04T22:40:13.191Z,3.48
2023-04-04T22:42:39.681Z,3.23
2023-04-04T22:45:06.143Z,3.46
2023-04-04T22:47:32.613Z,3.57
2023-04-04T22:50:04.859Z,3.59
2023-04-04T22:52:31.996Z,3.36
2023-04-04T22:54:59.300Z,2.93
2023-04-04T22:57:25.970Z,3.19
2023-04-04T22:59:52.448Z,3.28
2023-04-04T23:02:18.902Z,3.34
2023-04-04T23:04:45.425Z,3.37
2023-04-04T23:07:12.283Z,3.18
2023-04-04T23:09:38.725Z,3.15
2023-04-04T23:12:05.136Z,2.93
2023-04-04T23:14:31.565Z,3.00
2023-04-04T23:16:58.014Z,2.92
2023-04-04T23:19:24.518Z,3.07
2023-04-04T23:21:52.755Z,3.15
2023-04-04T23:24:19.244Z,2.98
2023-04-04T23:26:45.949Z,3.03
2023-04-04T23:29:12.370Z,3.10
2023-04-04T23:31:38.913Z,3.17
2023-04-04T23:34:05.377Z,3.26
2023-04-04T23:36:32.124Z,3.19
2023-04-04T23:38:58.621Z,3.19
2023-04-04T23:41:25.109Z,3.03
2023-04-04T23:43:51.624Z,2.71
2023-04-04T23:46:18.030Z,2.91
2023-04-04T23:48:44.449Z,3.07
2023-04-04T23:51:11.153Z,3.08
2023-04-04T23:53:37.556Z,2.74
2023-04-04T23:56:03.976Z,2.73
2023-04-04T23:58:30.623Z,2.57
